createdAt,value
2018-03-01T00:01:36.347Z,-5.10
2018-03-01T00:04:03.973Z,-5.10
2018-03-01T00:06:31.789Z,-5.00
2018-03-01T00:08:57.950Z,-5.10
2018-03-01T00:11:24.315Z,-5.10
2018-03-01T00:13:52.698Z,-5.10
2018-03-01T00:16:19.322Z,-5.20
2018-03-01T00:18:45.733Z,-5.20
2018-03-01T00:21:12.338Z,-5.20
2018-03-01T00:23:38.738Z,-5.10
2018-03-01T00:26:05.261Z,-5.10
2018-03-01T00:28:31.515Z,-5.10
2018-03-01T00:31:01.687Z,-5.20
2018-03-01T00:33:28.280Z,-5.20
2018-03-01T00:35:54.644Z,-5.30
2018-03-01T00:38:21.757Z,-5.20
2018-03-01T00:40:48.565Z,-5.20
2018-03-01T00:43:14.939Z,-5.10
2018-03-01T00:45:43.697Z,-5.10
2018-03-01T00:48:09.907Z,-5.20
2018-03-01T00:50:36.355Z,-5.20
2018-03-01T00:53:03.667Z,-5.10
2018-03-01T00:55:30.284Z,-5.20
2018-03-01T00:57:56.422Z,-5.10
2018-03-01T01:00:22.773Z,-5.10
2018-03-01T01:02:50.029Z,-5.20
2018-03-01T01:05:16.726Z,-5.20
2018-03-01T01:07:43.769Z,-5.10
2018-03-01T01:10:10.938Z,-5.10
2018-03-01T01:12:37.569Z,-5.10
2018-03-01T01:15:05.238Z,-5.10
2018-03-01T01:17:31.484Z,-5.20
2018-03-01T01:19:57.785Z,-5.10
2018-03-01T01:22:24.969Z,-5.00
2018-03-01T01:24:52.277Z,-5.00
2018-03-01T01:27:18.942Z,-5.00
2018-03-01T01:29:45.145Z,-5.10
2018-03-01T01:32:11.788Z,-5.10
2018-03-01T01:34:38.131Z,-5.00
2018-03-01T01:37:05.611Z,-5.10
2018-03-01T01:39:31.863Z,-5.00
2018-03-01T01:41:58.313Z,-4.90
2018-03-01T01:44:25.223Z,-4.90
2018-03-01T01:46:51.546Z,-4.90
2018-03-01T01:49:18.368Z,-4.90
2018-03-01T01:51:45.875Z,-5.00
2018-03-01T01:54:12.302Z,-5.10
2018-03-01T01:56:38.491Z,-5.10
2018-03-01T01:59:05.328Z,-5.10
2018-03-01T02:01:32.939Z,-5.20
2018-03-01T02:03:59.134Z,-5.20
2018-03-01T02:06:26.675Z,-5.30
2018-03-01T02:08:53.618Z,-5.20
2018-03-01T02:11:19.955Z,-5.20
2018-03-01T02:13:47.096Z,-5.20
2018-03-01T02:16:13.339Z,-5.10
2018-03-01T02:18:39.463Z,-5.10
2018-03-01T02:21:05.997Z,-5.20
2018-03-01T02:23:33.130Z,-5.20
2018-03-01T02:25:59.779Z,-5.20
2018-03-01T02:28:26.310Z,-5.20
2018-03-01T02:30:53.259Z,-5.10
2018-03-01T02:33:20.622Z,-5.10
2018-03-01T02:35:47.030Z,-5.10
2018-03-01T02:38:13.237Z,-5.10
2018-03-01T02:40:40.579Z,-5.10
2018-03-01T02:43:06.963Z,-5.20
2018-03-01T02:45:33.191Z,-5.10
2018-03-01T02:48:00.238Z,-5.20
2018-03-01T02:50:26.588Z,-5.30
2018-03-01T02:52:53.634Z,-5.30
2018-03-01T02:55:19.849Z,-5.40
2018-03-01T02:57:46.220Z,-5.20
2018-03-01T03:00:12.484Z,-5.30
2018-03-01T03:02:38.937Z,-5.30
2018-03-01T03:05:05.187Z,-5.30
2018-03-01T03:07:31.494Z,-5.20
2018-03-01T03:09:57.974Z,-5.30
2018-03-01T03:12:24.077Z,-5.30
2018-03-01T03:14:50.348Z,-5.30
2018-03-01T03:17:16.630Z,-5.30
2018-03-01T03:19:42.854Z,-5.30
2018-03-01T03:22:10.984Z,-5.20
2018-03-01T03:24:37.188Z,-5.30
2018-03-01T03:27:03.424Z,-5.20
2018-03-01T03:29:29.583Z,-5.20
2018-03-01T03:31:55.826Z,-5.30
2018-03-01T03:34:22.068Z,-5.20
2018-03-01T03:36:48.352Z,-5.50
2018-03-01T03:39:14.685Z,-5.30
2018-03-01T03:41:40.823Z,-5.40
2018-03-01T03:44:06.950Z,-5.50
2018-03-01T03:46:33.821Z,-5.40
2018-03-01T03:49:00.128Z,-5.50
2018-03-01T03:51:26.327Z,-5.60
2018-03-01T03:53:53.068Z,-5.50
2018-03-01T03:56:26.623Z,-5.40
2018-03-01T03:58:54.327Z,-5.40
2018-03-01T04:01:20.669Z,-5.40
2018-03-01T04:03:46.890Z,-5.40
2018-03-01T04:06:14.851Z,-5.40
2018-03-01T04:08:41.278Z,-5.40
2018-03-01T04:11:07.436Z,-5.40
2018-03-01T04:13:33.908Z,-5.40
2018-03-01T04:16:00.730Z,-5.50
2018-03-01T04:18:27.953Z,-5.40
2018-03-01T04:20:55.444Z,-5.50
2018-03-01T04:23:21.651Z,-5.50
2018-03-01T04:25:49.218Z,-5.50
2018-03-01T04:28:15.403Z,-5.40
2018-03-01T04:30:41.579Z,-5.40
2018-03-01T04:33:08.280Z,-5.40
2018-03-01T04:35:35.659Z,-5.40
2018-03-01T04:38:02.200Z,-5.50
2018-03-01T04:40:29.114Z,-5.50
2018-03-01T04:42:55.373Z,-5.50
2018-03-01T04:45:22.355Z,-5.50
2018-03-01T04:47:49.599Z,-5.50
2018-03-01T04:50:15.965Z,-5.50
2018-03-01T04:52:43.303Z,-5.40
2018-03-01T04:55:09.884Z,-5.50
2018-03-01T04:57:36.441Z,-5.50
2018-03-01T05:00:02.651Z,-5.50
2018-03-01T05:02:29.689Z,-5.40
2018-03-01T05:04:56.191Z,-5.50
2018-03-01T05:07:23.387Z,-5.50
2018-03-01T05:09:49.581Z,-5.60
2018-03-01T05:12:16.402Z,-5.50
2018-03-01T05:14:43.430Z,-5.50
2018-03-01T05:17:10.552Z,-5.40
2018-03-01T05:19:36.717Z,-5.60
2018-03-01T05:22:03.434Z,-5.40
2018-03-01T05:24:29.999Z,-5.40
2018-03-01T05:26:56.186Z,-5.40
2018-03-01T05:29:22.900Z,-5.50
2018-03-01T05:31:49.292Z,-5.40
2018-03-01T05:34:18.948Z,-5.50
2018-03-01T05:36:45.146Z,-5.50
2018-03-01T05:39:11.407Z,-5.50
2018-03-01T05:41:37.754Z,-5.40
2018-03-01T05:44:04.029Z,-5.40
2018-03-01T05:46:30.274Z,-5.40
2018-03-01T05:48:57.408Z,-5.40
2018-03-01T05:51:23.947Z,-5.40
2018-03-01T05:53:51.138Z,-5.30
2018-03-01T05:56:17.859Z,-5.40
2018-03-01T05:58:45.171Z,-5.30
2018-03-01T06:01:13.198Z,-5.30
2018-03-01T06:03:39.387Z,-5.30
2018-03-01T06:06:06.103Z,-5.20
2018-03-01T06:08:32.829Z,-5.20
2018-03-01T06:10:59.686Z,-5.30
2018-03-01T06:13:26.403Z,-5.30
2018-03-01T06:15:53.224Z,-5.30
2018-03-01T06:18:19.348Z,-5.30
2018-03-01T06:20:45.468Z,-5.30
2018-03-01T06:23:11.600Z,-5.30
2018-03-01T06:25:37.828Z,-5.20
2018-03-01T06:28:04.321Z,-5.20
2018-03-01T06:30:30.836Z,-5.20
2018-03-01T06:32:57.072Z,-5.20
2018-03-01T06:35:23.395Z,-5.10
2018-03-01T06:37:50.048Z,-5.10
2018-03-01T06:40:17.973Z,-5.10
2018-03-01T06:42:45.987Z,-5.10
2018-03-01T06:45:13.278Z,-5.10
2018-03-01T06:47:39.511Z,-5.10
2018-03-01T06:52:40.213Z,-5.20
2018-03-01T06:55:06.859Z,-5.30
2018-03-01T06:57:32.968Z,-5.20
2018-03-01T06:59:59.509Z,-5.20
2018-03-01T07:02:26.513Z,-5.10
2018-03-01T07:04:52.888Z,-5.10
2018-03-01T07:07:19.071Z,-5.10
2018-03-01T07:09:45.703Z,-5.10
2018-03-01T07:12:12.845Z,-5.10
2018-03-01T07:14:38.977Z,-5.10
2018-03-01T07:17:05.599Z,-5.00
2018-03-01T07:19:32.108Z,-5.00
2018-03-01T07:21:59.391Z,-5.00
2018-03-01T07:24:25.513Z,-5.00
2018-03-01T07:26:52.633Z,-4.90
2018-03-01T07:29:19.678Z,-4.90
2018-03-01T07:31:46.225Z,-4.90
2018-03-01T07:34:12.662Z,-4.90
2018-03-01T07:36:40.032Z,-4.90
2018-03-01T07:39:06.741Z,-4.90
2018-03-01T07:41:32.946Z,-4.80
2018-03-01T07:44:00.073Z,-4.80
2018-03-01T07:46:26.363Z,-4.70
2018-03-01T07:48:52.506Z,-4.80
2018-03-01T07:51:19.051Z,-4.70
2018-03-01T07:53:45.682Z,-4.60
2018-03-01T07:56:12.288Z,-4.50
2018-03-01T07:58:38.534Z,-4.50
2018-03-01T08:01:05.989Z,-4.50
2018-03-01T08:03:32.422Z,-4.30
2018-03-01T08:05:59.896Z,-4.30
2018-03-01T08:08:25.955Z,-4.30
2018-03-01T08:10:53.024Z,-4.30
2018-03-01T08:13:19.173Z,-4.30
2018-03-01T08:15:45.814Z,-4.30
2018-03-01T08:18:11.988Z,-4.30
2018-03-01T08:20:38.231Z,-4.30
2018-03-01T08:23:04.398Z,-4.20
2018-03-01T08:25:36.561Z,-4.30
2018-03-01T08:28:03.390Z,-4.30
2018-03-01T08:30:30.277Z,-4.20
2018-03-01T08:32:56.900Z,-4.30
2018-03-01T08:35:23.833Z,-4.00
2018-03-01T08:37:50.949Z,-4.00
2018-03-01T08:40:17.866Z,-3.90
2018-03-01T08:42:43.959Z,-3.90
2018-03-01T08:45:10.182Z,-3.90
2018-03-01T08:47:36.412Z,-3.90
2018-03-01T08:50:03.693Z,-3.80
2018-03-01T08:52:33.078Z,-3.80
2018-03-01T08:55:01.123Z,-3.70
2018-03-01T08:57:27.476Z,-3.50
2018-03-01T08:59:55.692Z,-3.70
2018-03-01T09:02:23.541Z,-3.70
2018-03-01T09:04:49.770Z,-3.70
2018-03-01T09:07:17.130Z,-3.50
2018-03-01T09:09:43.230Z,-3.60
2018-03-01T09:12:10.117Z,-3.50
2018-03-01T09:14:36.932Z,-3.50
2018-03-01T09:17:03.418Z,-3.50
2018-03-01T09:19:29.602Z,-3.50
2018-03-01T09:21:56.216Z,-3.50
2018-03-01T09:24:24.068Z,-3.30
2018-03-01T09:26:50.294Z,-3.20
2018-03-01T09:29:16.414Z,-3.20
2018-03-01T09:31:43.895Z,-3.00
2018-03-01T09:34:10.002Z,-2.90
2018-03-01T09:36:36.428Z,-2.90
2018-03-01T09:39:02.684Z,-2.90
2018-03-01T09:41:28.837Z,-2.90
2018-03-01T09:43:55.001Z,-3.00
2018-03-01T09:46:21.192Z,-2.90
2018-03-01T09:48:47.517Z,-2.80
2018-03-01T09:51:13.692Z,-2.70
2018-03-01T09:53:40.216Z,-2.60
2018-03-01T09:56:06.307Z,-2.60
2018-03-01T09:58:33.654Z,-2.60
2018-03-01T10:01:00.172Z,-2.70
2018-03-01T10:03:27.094Z,-2.50
2018-03-01T10:05:53.913Z,-2.40
2018-03-01T10:08:21.611Z,-2.20
2018-03-01T10:10:55.827Z,-2.10
2018-03-01T10:13:22.972Z,-1.90
2018-03-01T10:15:49.497Z,-1.90
2018-03-01T10:18:15.909Z,-1.80
2018-03-01T10:20:43.344Z,-1.50
2018-03-01T10:23:09.945Z,-1.60
2018-03-01T10:25:36.665Z,-1.50
2018-03-01T10:28:03.351Z,-1.40
2018-03-01T10:30:30.131Z,-1.30
2018-03-01T10:32:57.097Z,-1.20
2018-03-01T10:35:24.335Z,-1.20
2018-03-01T10:37:50.536Z,-1.10
2018-03-01T10:40:17.742Z,-1.10
2018-03-01T10:42:44.678Z,-0.90
2018-03-01T10:45:13.228Z,-0.90
2018-03-01T10:47:39.390Z,-0.90
2018-03-01T10:50:05.762Z,-0.90
2018-03-01T10:52:31.967Z,-0.90
2018-03-01T10:54:58.590Z,-1.00
2018-03-01T10:57:25.548Z,-0.70
2018-03-01T10:59:51.781Z,-0.50
2018-03-01T11:02:18.037Z,-0.30
2018-03-01T11:04:45.006Z,-0.50
2018-03-01T11:07:18.931Z,-0.30
2018-03-01T11:09:45.308Z,-0.30
2018-03-01T11:12:11.626Z,0.00
2018-03-01T11:14:38.277Z,0.30
2018-03-01T11:17:11.776Z,0.40
2018-03-01T11:19:38.542Z,0.50
2018-03-01T11:22:05.630Z,0.80
2018-03-01T11:24:31.915Z,0.90
2018-03-01T11:26:59.262Z,1.00
2018-03-01T11:29:25.901Z,0.90
2018-03-01T11:31:52.143Z,1.00
2018-03-01T11:34:19.179Z,1.00
2018-03-01T11:36:45.406Z,1.10
2018-03-01T11:39:12.044Z,1.10
2018-03-01T11:41:38.984Z,1.10
2018-03-01T11:44:05.390Z,1.10
2018-03-01T11:46:32.035Z,1.20
2018-03-01T11:48:58.264Z,1.50
2018-03-01T11:51:26.902Z,1.60
2018-03-01T11:53:55.019Z,1.70
2018-03-01T11:56:21.407Z,1.60
2018-03-01T11:58:47.883Z,1.50
2018-03-01T12:01:14.127Z,1.50
2018-03-01T12:03:40.736Z,1.70
2018-03-01T12:06:06.974Z,1.90
2018-03-01T12:08:34.020Z,2.10
2018-03-01T12:11:01.076Z,2.00
2018-03-01T12:13:27.331Z,2.10
2018-03-01T12:15:53.830Z,2.30
2018-03-01T12:18:21.139Z,2.40
2018-03-01T12:20:47.450Z,2.50
2018-03-01T12:23:13.750Z,2.60
2018-03-01T12:25:40.959Z,2.50
2018-03-01T12:28:08.183Z,2.40
2018-03-01T12:30:35.204Z,2.60
2018-03-01T12:33:02.188Z,2.50
2018-03-01T12:35:28.780Z,2.70
2018-03-01T12:37:55.760Z,2.70
2018-03-01T12:40:23.520Z,2.80
2018-03-01T12:42:50.244Z,3.10
2018-03-01T12:45:16.681Z,3.20
2018-03-01T12:47:43.696Z,3.10
2018-03-01T12:50:10.948Z,2.90
2018-03-01T12:52:37.387Z,3.00
2018-03-01T12:55:05.421Z,3.20
2018-03-01T12:57:33.084Z,3.20
2018-03-01T12:59:59.245Z,3.10
2018-03-01T13:02:25.774Z,3.10
2018-03-01T13:04:54.508Z,3.10
2018-03-01T13:07:20.942Z,3.10
2018-03-01T13:09:47.158Z,3.00
2018-03-01T13:12:13.682Z,3.30
2018-03-01T13:14:39.868Z,3.50
2018-03-01T13:17:07.213Z,3.40
2018-03-01T13:19:34.937Z,3.50
2018-03-01T13:22:01.203Z,3.70
2018-03-01T13:27:02.734Z,4.20
2018-03-01T13:29:30.578Z,4.10
2018-03-01T13:32:11.927Z,4.00
2018-03-01T13:34:46.209Z,3.70
2018-03-01T13:37:12.558Z,3.70
2018-03-01T13:39:38.946Z,3.70
2018-03-01T13:42:06.184Z,3.90
2018-03-01T13:44:32.552Z,3.70
2018-03-01T13:47:04.596Z,3.80
2018-03-01T13:49:31.467Z,4.00
2018-03-01T13:51:57.846Z,4.20
2018-03-01T13:54:26.015Z,4.30
2018-03-01T13:56:53.540Z,4.20
2018-03-01T13:59:21.399Z,4.30
2018-03-01T14:01:49.091Z,4.30
2018-03-01T14:04:15.482Z,4.30
2018-03-01T14:09:56.003Z,4.20
2018-03-01T14:12:30.066Z,4.20
2018-03-01T14:14:58.053Z,4.20
2018-03-01T14:17:28.631Z,4.00
2018-03-01T14:20:01.317Z,4.00
2018-03-01T14:22:31.588Z,4.10
2018-03-01T14:24:59.254Z,4.10
2018-03-01T14:27:25.494Z,4.20
2018-03-01T14:29:54.658Z,4.40
2018-03-01T14:32:21.307Z,4.60
2018-03-01T14:34:48.291Z,4.60
2018-03-01T14:37:14.537Z,4.20
2018-03-01T14:39:40.866Z,4.10
2018-03-01T14:42:07.442Z,3.90
2018-03-01T14:44:33.528Z,4.00
2018-03-01T14:46:59.834Z,4.00
2018-03-01T14:49:27.920Z,3.80
2018-03-01T14:51:55.955Z,3.70
2018-03-01T14:54:22.172Z,3.80
2018-03-01T14:56:48.459Z,3.60
2018-03-01T14:59:16.407Z,3.40
2018-03-01T15:01:43.817Z,3.50
2018-03-01T15:04:10.061Z,3.60
2018-03-01T15:06:37.088Z,3.50
2018-03-01T15:09:03.480Z,3.40
2018-03-01T15:11:30.929Z,3.20
2018-03-01T15:13:58.225Z,3.20
2018-03-01T15:16:26.732Z,3.10
2018-03-01T15:18:53.409Z,3.10
2018-03-01T15:21:19.818Z,3.10
2018-03-01T15:23:47.250Z,3.00
2018-03-01T15:26:14.604Z,2.90
2018-03-01T15:28:41.205Z,2.90
2018-03-01T15:31:08.446Z,2.80
2018-03-01T15:33:34.531Z,2.70
2018-03-01T15:36:03.441Z,2.60
2018-03-01T15:38:29.597Z,2.60
2018-03-01T15:40:55.872Z,2.60
2018-03-01T15:43:23.902Z,2.50
2018-03-01T15:45:50.460Z,2.50
2018-03-01T15:48:16.768Z,2.50
2018-03-01T15:50:43.127Z,2.50
2018-03-01T15:53:10.433Z,2.50
2018-03-01T15:55:37.709Z,2.40
2018-03-01T15:58:04.028Z,2.40
2018-03-01T16:00:30.219Z,2.30
2018-03-01T16:02:56.478Z,2.30
2018-03-01T16:05:24.296Z,2.20
2018-03-01T16:07:51.612Z,2.20
2018-03-01T16:10:17.825Z,2.10
2018-03-01T16:12:44.055Z,2.10
2018-03-01T16:15:11.700Z,2.10
2018-03-01T16:17:37.983Z,2.10
2018-03-01T16:20:04.307Z,2.10
2018-03-01T16:22:30.522Z,2.10
2018-03-01T16:24:56.777Z,2.00
2018-03-01T16:27:23.812Z,2.00
2018-03-01T16:29:50.431Z,2.00
2018-03-01T16:32:17.062Z,2.00
2018-03-01T16:34:44.296Z,2.10
2018-03-01T16:37:13.941Z,2.00
2018-03-01T16:39:44.443Z,1.90
2018-03-01T16:42:11.413Z,1.90
2018-03-01T16:44:38.571Z,2.00
2018-03-01T16:47:05.613Z,1.90
2018-03-01T16:49:32.825Z,1.90
2018-03-01T16:51:59.500Z,1.80
2018-03-01T16:54:26.659Z,1.90
2018-03-01T16:56:52.982Z,1.90
2018-03-01T16:59:19.279Z,1.90
2018-03-01T17:01:45.590Z,1.80
2018-03-01T17:04:13.022Z,1.80
2018-03-01T17:06:40.058Z,1.80
2018-03-01T17:09:07.815Z,1.80
2018-03-01T17:11:35.367Z,1.80
2018-03-01T17:14:02.070Z,1.80
2018-03-01T17:16:28.840Z,1.80
2018-03-01T17:18:55.045Z,1.70
2018-03-01T17:21:22.330Z,1.70
2018-03-01T17:23:48.543Z,1.70
2018-03-01T17:26:15.190Z,1.70
2018-03-01T17:28:43.152Z,1.70
2018-03-01T17:31:10.189Z,1.70
2018-03-01T17:33:36.892Z,1.70
2018-03-01T17:36:03.063Z,1.70
2018-03-01T17:38:30.207Z,1.70
2018-03-01T17:40:56.333Z,1.70
2018-03-01T17:43:24.113Z,1.70
2018-03-01T17:45:50.904Z,1.70
2018-03-01T17:48:18.820Z,1.60
2018-03-01T17:50:45.693Z,1.60
2018-03-01T17:53:12.373Z,1.60
2018-03-01T17:55:38.719Z,1.60
2018-03-01T17:58:06.612Z,1.60
2018-03-01T18:00:32.692Z,1.50
2018-03-01T18:03:00.089Z,1.60
2018-03-01T18:05:26.134Z,1.50
2018-03-01T18:07:52.331Z,1.50
2018-03-01T18:10:19.641Z,1.50
2018-03-01T18:12:45.851Z,1.40
2018-03-01T18:15:12.052Z,1.50
2018-03-01T18:17:38.182Z,1.50
2018-03-01T18:20:05.862Z,1.50
2018-03-01T18:22:32.036Z,1.40
2018-03-01T18:24:58.200Z,1.40
2018-03-01T18:27:24.416Z,1.40
2018-03-01T18:29:50.644Z,1.40
2018-03-01T18:32:17.775Z,1.40
2018-03-01T18:34:44.520Z,1.40
2018-03-01T18:37:10.671Z,1.30
2018-03-01T18:39:36.810Z,1.30
2018-03-01T18:42:04.628Z,1.30
2018-03-01T18:44:32.095Z,1.30
2018-03-01T18:46:58.199Z,1.30
2018-03-01T18:49:25.877Z,1.30
2018-03-01T18:51:52.826Z,1.30
2018-03-01T18:54:19.588Z,1.30
2018-03-01T18:56:46.250Z,1.30
2018-03-01T18:59:12.335Z,1.30
2018-03-01T19:01:38.732Z,1.40
2018-03-01T19:04:05.645Z,1.40
2018-03-01T19:06:32.583Z,1.30
2018-03-01T19:09:00.276Z,1.20
2018-03-01T19:11:26.511Z,1.20
2018-03-01T19:13:52.604Z,1.30
2018-03-01T19:16:21.722Z,1.30
2018-03-01T19:18:47.962Z,1.30
2018-03-01T19:21:14.052Z,1.40
2018-03-01T19:23:40.960Z,1.30
2018-03-01T19:26:07.148Z,1.30
2018-03-01T19:28:33.360Z,1.30
2018-03-01T19:33:33.168Z,1.30
2018-03-01T19:35:59.283Z,1.20
2018-03-01T19:38:25.338Z,1.30
2018-03-01T19:40:51.524Z,1.20
2018-03-01T19:43:17.596Z,1.20
2018-03-01T19:45:44.202Z,1.20
2018-03-01T19:48:11.159Z,1.10
2018-03-01T19:50:37.591Z,1.00
2018-03-01T19:53:03.916Z,1.10
2018-03-01T19:55:30.906Z,1.10
2018-03-01T19:57:57.809Z,1.10
2018-03-01T20:00:24.602Z,1.00
2018-03-01T20:02:51.461Z,1.00
2018-03-01T20:05:17.645Z,1.00
2018-03-01T20:07:44.591Z,1.30
2018-03-01T20:10:11.614Z,1.20
2018-03-01T20:12:38.884Z,1.10
2018-03-01T20:15:04.974Z,1.10
2018-03-01T20:17:32.070Z,1.00
2018-03-01T20:19:59.696Z,1.00
2018-03-01T20:22:27.788Z,0.90
2018-03-01T20:24:53.965Z,0.90
2018-03-01T20:27:20.154Z,1.00
2018-03-01T20:29:49.051Z,1.00
2018-03-01T20:32:15.520Z,1.00
2018-03-01T20:34:41.967Z,0.90
2018-03-01T20:37:09.479Z,0.90
2018-03-01T20:39:35.883Z,0.90
2018-03-01T20:42:02.296Z,0.90
2018-03-01T20:44:29.643Z,0.90
2018-03-01T20:46:55.805Z,0.80
2018-03-01T20:49:22.782Z,0.70
2018-03-01T20:51:48.968Z,0.70
2018-03-01T20:54:15.270Z,0.70
2018-03-01T20:56:42.355Z,0.80
2018-03-01T20:59:08.693Z,0.60
2018-03-01T21:01:35.448Z,0.60
2018-03-01T21:04:02.175Z,0.50
2018-03-01T21:06:29.228Z,0.50
2018-03-01T21:08:55.389Z,0.40
2018-03-01T21:11:22.310Z,0.40
2018-03-01T21:13:48.494Z,0.30
2018-03-01T21:16:14.996Z,0.30
2018-03-01T21:18:41.670Z,0.20
2018-03-01T21:21:08.204Z,0.30
2018-03-01T21:23:34.557Z,0.70
2018-03-01T21:26:00.738Z,0.80
2018-03-01T21:28:28.206Z,0.60
2018-03-01T21:30:54.912Z,0.50
2018-03-01T21:33:21.192Z,0.30
2018-03-01T21:35:48.695Z,0.30
2018-03-01T21:38:17.375Z,0.10
2018-03-01T21:40:44.011Z,0.10
2018-03-01T21:43:10.226Z,0.10
2018-03-01T21:45:37.749Z,0.00
2018-03-01T21:48:03.928Z,-0.10
2018-03-01T21:50:30.080Z,0.00
2018-03-01T21:52:57.030Z,-0.10
2018-03-01T21:55:25.088Z,-0.20
2018-03-01T21:57:52.881Z,-0.20
2018-03-01T22:00:20.673Z,-0.10
2018-03-01T22:02:46.867Z,-0.20
2018-03-01T22:05:14.043Z,-0.20
2018-03-01T22:07:41.377Z,-0.20
2018-03-01T22:10:07.527Z,-0.10
2018-03-01T22:12:35.082Z,-0.10
2018-03-01T22:15:01.421Z,-0.10
2018-03-01T22:17:27.563Z,-0.20
2018-03-01T22:19:53.691Z,-0.20
2018-03-01T22:22:19.852Z,-0.20
2018-03-01T22:24:46.438Z,-0.30
2018-03-01T22:27:14.004Z,-0.40
2018-03-01T22:29:41.528Z,-0.50
2018-03-01T22:32:08.295Z,-0.50
2018-03-01T22:34:35.504Z,-0.50
2018-03-01T22:37:02.747Z,-0.60
2018-03-01T22:39:29.739Z,-0.50
2018-03-01T22:41:57.722Z,-0.60
2018-03-01T22:44:23.858Z,-0.60
2018-03-01T22:46:50.511Z,-0.60
2018-03-01T22:49:16.806Z,-0.60
2018-03-01T22:51:43.374Z,-0.70
2018-03-01T22:54:09.680Z,-0.70
2018-03-01T22:56:35.916Z,-0.50
2018-03-01T22:59:03.427Z,-0.40
2018-03-01T23:01:29.549Z,-0.60
2018-03-01T23:03:55.724Z,-0.70
2018-03-01T23:06:22.692Z,-0.70
2018-03-01T23:08:51.252Z,-0.60
2018-03-01T23:11:18.505Z,-0.70
2018-03-01T23:13:44.932Z,-0.80
2018-03-01T23:16:11.577Z,-0.70
2018-03-01T23:18:37.794Z,-0.70
2018-03-01T23:21:04.100Z,-0.60
2018-03-01T23:23:30.399Z,-0.80
2018-03-01T23:25:57.356Z,-0.70
2018-03-01T23:28:24.686Z,-0.80
2018-03-01T23:30:51.252Z,-0.90
2018-03-01T23:33:17.491Z,-1.00
2018-03-01T23:35:43.554Z,-1.00
2018-03-01T23:38:10.076Z,-1.10
2018-03-01T23:40:36.211Z,-1.00
2018-03-01T23:43:02.752Z,-1.00
2018-03-01T23:45:28.955Z,-1.00
2018-03-01T23:47:55.823Z,-1.00
2018-03-01T23:50:22.047Z,-1.00
2018-03-01T23:52:48.936Z,-1.10
2018-03-01T23:55:15.228Z,-1.10
2018-03-01T23:57:41.648Z,-1.10
